This is the latest recevied weather packets stored in our database for station/object NK7E-2. If no packets are shown the sender has not sent any weather packets the latest 10 day(s).
| Time | Temp. | Humidity | Pressure | Rain* | Wind** | Luminosity | Snow |
|---|---|---|---|---|---|---|---|
| 1787660116 | 26.11° C | 41% | 1028.7 hPa | 0 mm | - | - | - |
| 1787659515 | 27.22° C | 39% | 1028.8 hPa | 0 mm | - | - | - |
| 1787658918 | 27.22° C | 38% | 1028.8 hPa | 0 mm | - | - | - |
| 1787658318 | 26.67° C | 40% | 1028.8 hPa | 0 mm | - | - | - |
| 1787657717 | 27.22° C | 38% | 1028.9 hPa | 0 mm | - | - | - |
| 1787657117 | 27.22° C | 38% | 1028.9 hPa | 0 mm | - | - | - |
| 1787656517 | 27.78° C | 38% | 1029.1 hPa | 0 mm | - | - | - |
| 1787655917 | 27.78° C | 37% | 1029 hPa | 0 mm | - | - | - |
| 1787655317 | 27.78° C | 38% | 1029 hPa | 0 mm | - | - | - |
| 1787654717 | 27.78° C | 38% | 1029.1 hPa | 0 mm | - | - | - |
| 1787654117 | 27.78° C | 38% | 1029.1 hPa | 0 mm | - | - | - |
| 1787653517 | 27.22° C | 39% | 1028.9 hPa | 0 mm | - | - | - |
| 1787652917 | 26.67° C | 39% | 1028.9 hPa | 0 mm | - | - | - |
| 1787652317 | 26.67° C | 39% | 1028.8 hPa | 0 mm | - | - | - |
| 1787651717 | 27.22° C | 39% | 1028.9 hPa | 0 mm | - | - | - |
| 1787651117 | 27.22° C | 38% | 1028.8 hPa | 0 mm | - | - | - |
| 1787650517 | 27.22° C | 38% | 1028.8 hPa | 0 mm | - | - | - |
| 1787649917 | 27.22° C | 39% | 1028.8 hPa | 0 mm | - | - | - |
| 1787649317 | 27.22° C | 38% | 1028.9 hPa | 0 mm | - | - | - |
| 1787648717 | 27.78° C | 38% | 1029.1 hPa | 0 mm | - | - | - |
| 1787648117 | 27.78° C | 38% | 1029.1 hPa | 0 mm | - | - | - |
| 1787647517 | 27.78° C | 38% | 1028.9 hPa | 0 mm | - | - | - |
| 1787646917 | 27.78° C | 39% | 1028.9 hPa | 0 mm | - | - | - |
| 1787646317 | 27.78° C | 38% | 1029 hPa | 0 mm | - | - | - |
| 1787645717 | 28.33° C | 37% | 1029.1 hPa | 0 mm | - | - | - |
* Rain latest hour (hover to see other rain measurements)
** Current wind speed in m/s (hover to see current wind gust speed)